sensor_id;sensor_type;location;lat;lon;timestamp;pressure;altitude;pressure_sealevel;temperature;humidity
5917;BME280;2984;42.656;23.300;2022-12-20T00:01:36;96254.34;;;1.12;64.02
5917;BME280;2984;42.656;23.300;2022-12-20T00:04:05;96235.09;;;-0.53;66.92
5917;BME280;2984;42.656;23.300;2022-12-20T00:06:36;96251.22;;;-0.80;69.00
5917;BME280;2984;42.656;23.300;2022-12-20T00:09:07;96257.34;;;-0.53;70.20
5917;BME280;2984;42.656;23.300;2022-12-20T00:11:38;96258.38;;;0.73;66.82
5917;BME280;2984;42.656;23.300;2022-12-20T00:14:07;96259.19;;;1.64;62.99
5917;BME280;2984;42.656;23.300;2022-12-20T00:16:36;96261.53;;;2.06;60.90
5917;BME280;2984;42.656;23.300;2022-12-20T00:19:06;96264.41;;;2.46;61.89
5917;BME280;2984;42.656;23.300;2022-12-20T00:21:37;96265.22;;;2.24;60.14
5917;BME280;2984;42.656;23.300;2022-12-20T00:24:06;96260.88;;;1.52;61.79
5917;BME280;2984;42.656;23.300;2022-12-20T00:26:35;96267.38;;;1.09;62.76
5917;BME280;2984;42.656;23.300;2022-12-20T00:29:05;96265.97;;;0.64;63.78
5917;BME280;2984;42.656;23.300;2022-12-20T00:31:34;96266.44;;;0.40;64.97
5917;BME280;2984;42.656;23.300;2022-12-20T00:34:03;96257.81;;;-0.70;67.83
5917;BME280;2984;42.656;23.300;2022-12-20T00:36:32;96256.22;;;-0.79;69.19
5917;BME280;2984;42.656;23.300;2022-12-20T00:39:03;96258.94;;;-1.07;70.53
5917;BME280;2984;42.656;23.300;2022-12-20T00:41:33;96251.69;;;-0.68;69.71
5917;BME280;2984;42.656;23.300;2022-12-20T00:44:03;96246.31;;;0.26;68.03
5917;BME280;2984;42.656;23.300;2022-12-20T00:46:32;96253.22;;;0.92;63.83
5917;BME280;2984;42.656;23.300;2022-12-20T00:49:01;96242.53;;;0.09;66.32
5917;BME280;2984;42.656;23.300;2022-12-20T00:51:32;96248.09;;;0.60;65.36
5917;BME280;2984;42.656;23.300;2022-12-20T00:54:03;96259.03;;;0.50;64.91
5917;BME280;2984;42.656;23.300;2022-12-20T00:56:32;96244.56;;;0.59;64.28
5917;BME280;2984;42.656;23.300;2022-12-20T00:59:00;96269.09;;;-0.19;65.55
5917;BME280;2984;42.656;23.300;2022-12-20T01:01:31;96272.69;;;-0.11;68.40
5917;BME280;2984;42.656;23.300;2022-12-20T01:04:00;96246.75;;;-0.83;67.59
5917;BME280;2984;42.656;23.300;2022-12-20T01:06:30;96260.44;;;-1.06;69.25
5917;BME280;2984;42.656;23.300;2022-12-20T01:08:59;96255.78;;;-1.45;70.46
5917;BME280;2984;42.656;23.300;2022-12-20T01:11:31;96260.28;;;-1.21;70.30
5917;BME280;2984;42.656;23.300;2022-12-20T01:14:05;96260.84;;;-1.57;70.84
5917;BME280;2984;42.656;23.300;2022-12-20T01:16:36;96238.41;;;-1.04;69.41
5917;BME280;2984;42.656;23.300;2022-12-20T01:19:06;96237.72;;;-1.38;70.41
5917;BME280;2984;42.656;23.300;2022-12-20T01:21:35;96232.41;;;-1.63;70.86
5917;BME280;2984;42.656;23.300;2022-12-20T01:24:09;96241.50;;;-1.62;71.54
5917;BME280;2984;42.656;23.300;2022-12-20T01:26:40;96242.00;;;-1.17;71.08
5917;BME280;2984;42.656;23.300;2022-12-20T01:29:09;96249.72;;;-1.57;70.44
5917;BME280;2984;42.656;23.300;2022-12-20T01:31:38;96231.09;;;-1.83;71.74
5917;BME280;2984;42.656;23.300;2022-12-20T01:34:07;96225.34;;;-1.98;72.11
5917;BME280;2984;42.656;23.300;2022-12-20T01:36:37;96202.94;;;-2.00;72.21
5917;BME280;2984;42.656;23.300;2022-12-20T01:39:09;96221.13;;;-1.65;73.08
5917;BME280;2984;42.656;23.300;2022-12-20T01:41:43;96217.09;;;-1.22;72.49
5917;BME280;2984;42.656;23.300;2022-12-20T01:47:11;96218.34;;;-1.65;73.09
5917;BME280;2984;42.656;23.300;2022-12-20T01:49:44;96211.28;;;-1.66;71.38
5917;BME280;2984;42.656;23.300;2022-12-20T01:52:16;96212.66;;;-1.93;71.47
5917;BME280;2984;42.656;23.300;2022-12-20T01:54:50;96212.31;;;-2.03;72.80
5917;BME280;2984;42.656;23.300;2022-12-20T01:57:26;96205.66;;;-2.21;73.53
5917;BME280;2984;42.656;23.300;2022-12-20T01:59:57;96205.91;;;-1.98;72.79
5917;BME280;2984;42.656;23.300;2022-12-20T02:02:26;96208.91;;;-1.96;73.40
5917;BME280;2984;42.656;23.300;2022-12-20T02:04:55;96202.53;;;-1.70;71.63
5917;BME280;2984;42.656;23.300;2022-12-20T02:07:26;96192.16;;;-2.03;72.01
5917;BME280;2984;42.656;23.300;2022-12-20T02:09:56;96205.28;;;-2.04;72.64
5917;BME280;2984;42.656;23.300;2022-12-20T02:12:32;96199.66;;;-1.77;73.64
5917;BME280;2984;42.656;23.300;2022-12-20T02:15:20;96202.44;;;-1.44;70.98
5917;BME280;2984;42.656;23.300;2022-12-20T02:18:03;96205.84;;;-1.37;70.98
5917;BME280;2984;42.656;23.300;2022-12-20T02:21:04;96207.78;;;-0.26;67.67
5917;BME280;2984;42.656;23.300;2022-12-20T02:29:36;96209.50;;;1.10;61.68
5917;BME280;2984;42.656;23.300;2022-12-20T02:32:13;96201.13;;;1.48;61.17
5917;BME280;2984;42.656;23.300;2022-12-20T02:34:45;96192.00;;;1.24;60.11
5917;BME280;2984;42.656;23.300;2022-12-20T02:37:14;96216.72;;;0.75;61.66
5917;BME280;2984;42.656;23.300;2022-12-20T02:39:43;96195.00;;;0.88;60.76
5917;BME280;2984;42.656;23.300;2022-12-20T02:42:16;96202.94;;;0.03;62.86
5917;BME280;2984;42.656;23.300;2022-12-20T02:44:48;96183.97;;;-0.43;64.33
5917;BME280;2984;42.656;23.300;2022-12-20T02:47:36;96200.25;;;-0.75;65.31
5917;BME280;2984;42.656;23.300;2022-12-20T02:50:08;96194.28;;;-0.51;65.97
5917;BME280;2984;42.656;23.300;2022-12-20T02:52:37;96183.75;;;-0.73;65.72
5917;BME280;2984;42.656;23.300;2022-12-20T02:55:07;96196.72;;;-0.19;65.09
5917;BME280;2984;42.656;23.300;2022-12-20T02:57:41;96196.47;;;0.15;64.34
5917;BME280;2984;42.656;23.300;2022-12-20T03:00:13;96192.84;;;-0.08;63.87
5917;BME280;2984;42.656;23.300;2022-12-20T03:02:46;96195.13;;;-0.63;65.17
5917;BME280;2984;42.656;23.300;2022-12-20T03:05:29;96173.69;;;-0.84;65.79
5917;BME280;2984;42.656;23.300;2022-12-20T03:07:58;96189.78;;;-1.11;66.32
5917;BME280;2984;42.656;23.300;2022-12-20T03:10:27;96185.06;;;-1.91;69.30
5917;BME280;2984;42.656;23.300;2022-12-20T03:12:55;96185.56;;;-2.13;70.38
5917;BME280;2984;42.656;23.300;2022-12-20T03:15:24;96186.56;;;-2.51;71.54
5917;BME280;2984;42.656;23.300;2022-12-20T03:17:55;96179.41;;;-2.72;73.05
5917;BME280;2984;42.656;23.300;2022-12-20T03:20:24;96151.34;;;-2.56;72.92
5917;BME280;2984;42.656;23.300;2022-12-20T03:22:53;96175.28;;;-1.92;71.04
5917;BME280;2984;42.656;23.300;2022-12-20T03:25:21;96168.00;;;-1.95;70.33
5917;BME280;2984;42.656;23.300;2022-12-20T03:27:50;96171.94;;;-1.91;70.64
5917;BME280;2984;42.656;23.300;2022-12-20T03:30:19;96184.06;;;-1.67;69.50
5917;BME280;2984;42.656;23.300;2022-12-20T03:32:48;96183.47;;;-1.11;67.90
5917;BME280;2984;42.656;23.300;2022-12-20T03:35:19;96184.47;;;-1.01;66.93
5917;BME280;2984;42.656;23.300;2022-12-20T03:37:48;96187.97;;;-0.80;66.81
5917;BME280;2984;42.656;23.300;2022-12-20T03:40:17;96161.16;;;-0.69;65.54
5917;BME280;2984;42.656;23.300;2022-12-20T03:42:45;96148.69;;;-0.76;64.96
5917;BME280;2984;42.656;23.300;2022-12-20T03:45:14;96181.97;;;-0.63;64.70
5917;BME280;2984;42.656;23.300;2022-12-20T03:47:43;96177.25;;;-0.76;65.17
5917;BME280;2984;42.656;23.300;2022-12-20T03:50:11;96136.69;;;-1.62;67.12
5917;BME280;2984;42.656;23.300;2022-12-20T03:52:43;96169.22;;;-1.70;67.79
5917;BME280;2984;42.656;23.300;2022-12-20T03:55:11;96165.88;;;-2.02;69.75
5917;BME280;2984;42.656;23.300;2022-12-20T03:57:40;96173.06;;;-2.07;70.72
5917;BME280;2984;42.656;23.300;2022-12-20T04:00:10;96167.38;;;-2.62;72.15
5917;BME280;2984;42.656;23.300;2022-12-20T04:02:40;96172.97;;;-2.28;72.20
5917;BME280;2984;42.656;23.300;2022-12-20T04:05:08;96174.56;;;-2.06;72.16
5917;BME280;2984;42.656;23.300;2022-12-20T04:07:37;96169.91;;;-1.15;68.69
5917;BME280;2984;42.656;23.300;2022-12-20T04:10:09;96173.44;;;0.15;65.95
5917;BME280;2984;42.656;23.300;2022-12-20T04:12:38;96181.31;;;0.31;62.44
5917;BME280;2984;42.656;23.300;2022-12-20T04:15:08;96146.22;;;0.36;62.93
5917;BME280;2984;42.656;23.300;2022-12-20T04:17:36;96167.28;;;1.05;61.96
5917;BME280;2984;42.656;23.300;2022-12-20T04:20:06;96154.06;;;2.39;60.82
5917;BME280;2984;42.656;23.300;2022-12-20T04:22:46;96159.09;;;2.41;55.82
5917;BME280;2984;42.656;23.300;2022-12-20T04:25:19;96166.88;;;4.18;58.81
5917;BME280;2984;42.656;23.300;2022-12-20T04:27:49;96168.38;;;3.85;53.08
5917;BME280;2984;42.656;23.300;2022-12-20T04:30:17;96156.41;;;3.08;52.33
5917;BME280;2984;42.656;23.300;2022-12-20T04:32:46;96156.88;;;2.39;54.14
5917;BME280;2984;42.656;23.300;2022-12-20T04:35:19;96154.06;;;1.29;56.21
5917;BME280;2984;42.656;23.300;2022-12-20T04:37:47;96162.69;;;0.19;60.42
5917;BME280;2984;42.656;23.300;2022-12-20T04:40:19;96159.38;;;0.28;60.72
5917;BME280;2984;42.656;23.300;2022-12-20T04:42:47;96153.75;;;1.80;64.12
5917;BME280;2984;42.656;23.300;2022-12-20T04:45:16;96166.59;;;2.96;60.37
5917;BME280;2984;42.656;23.300;2022-12-20T04:47:45;96125.63;;;4.28;52.43
5917;BME280;2984;42.656;23.300;2022-12-20T04:50:14;96149.34;;;4.45;60.23
5917;BME280;2984;42.656;23.300;2022-12-20T04:52:43;96159.16;;;4.09;53.54
5917;BME280;2984;42.656;23.300;2022-12-20T04:55:27;96144.34;;;4.80;50.68
5917;BME280;2984;42.656;23.300;2022-12-20T04:57:56;96160.16;;;5.67;51.78
5917;BME280;2984;42.656;23.300;2022-12-20T05:00:24;96155.28;;;4.76;46.34
5917;BME280;2984;42.656;23.300;2022-12-20T05:02:53;96143.97;;;3.43;47.72
5917;BME280;2984;42.656;23.300;2022-12-20T05:05:22;96151.56;;;3.08;49.05
5917;BME280;2984;42.656;23.300;2022-12-20T05:07:51;96150.31;;;3.44;51.47
5917;BME280;2984;42.656;23.300;2022-12-20T05:10:20;96143.03;;;4.81;58.78
5917;BME280;2984;42.656;23.300;2022-12-20T05:12:51;96155.81;;;4.64;49.22
5917;BME280;2984;42.656;23.300;2022-12-20T05:15:20;96158.72;;;5.20;48.34
5917;BME280;2984;42.656;23.300;2022-12-20T05:17:48;96137.34;;;3.14;50.14
5917;BME280;2984;42.656;23.300;2022-12-20T05:20:17;96129.97;;;3.78;47.62
5917;BME280;2984;42.656;23.300;2022-12-20T05:22:46;96160.41;;;4.96;50.14
5917;BME280;2984;42.656;23.300;2022-12-20T05:25:27;96158.94;;;5.42;47.91
5917;BME280;2984;42.656;23.300;2022-12-20T05:28:10;96140.41;;;4.92;51.07
5917;BME280;2984;42.656;23.300;2022-12-20T05:30:39;96158.56;;;6.51;55.57
5917;BME280;2984;42.656;23.300;2022-12-20T05:33:08;96154.00;;;7.58;53.31
5917;BME280;2984;42.656;23.300;2022-12-20T05:35:37;96162.94;;;7.97;51.93
5917;BME280;2984;42.656;23.300;2022-12-20T05:38:06;96160.78;;;8.62;51.56
5917;BME280;2984;42.656;23.300;2022-12-20T05:40:35;96144.34;;;7.82;44.15
5917;BME280;2984;42.656;23.300;2022-12-20T05:43:03;96101.25;;;7.49;44.21
5917;BME280;2984;42.656;23.300;2022-12-20T05:45:35;96166.00;;;7.37;55.04
5917;BME280;2984;42.656;23.300;2022-12-20T05:48:05;96161.38;;;5.84;44.38
5917;BME280;2984;42.656;23.300;2022-12-20T05:50:33;96166.13;;;5.25;44.13
5917;BME280;2984;42.656;23.300;2022-12-20T05:53:02;96167.19;;;6.15;50.67
5917;BME280;2984;42.656;23.300;2022-12-20T05:55:31;96160.91;;;7.45;49.62
5917;BME280;2984;42.656;23.300;2022-12-20T05:58:00;96142.31;;;7.52;40.95
5917;BME280;2984;42.656;23.300;2022-12-20T06:00:29;96144.53;;;7.96;52.02
5917;BME280;2984;42.656;23.300;2022-12-20T06:03:01;96174.03;;;8.26;43.09
5917;BME280;2984;42.656;23.300;2022-12-20T06:05:29;96176.72;;;7.81;46.51
5917;BME280;2984;42.656;23.300;2022-12-20T06:07:58;96172.53;;;8.25;43.66
5917;BME280;2984;42.656;23.300;2022-12-20T06:10:29;96181.22;;;8.72;49.53
5917;BME280;2984;42.656;23.300;2022-12-20T06:13:01;96160.84;;;8.73;43.79
5917;BME280;2984;42.656;23.300;2022-12-20T06:15:30;96107.13;;;4.79;42.48
5917;BME280;2984;42.656;23.300;2022-12-20T06:18:03;96089.91;;;6.06;57.22
5917;BME280;2984;42.656;23.300;2022-12-20T06:20:32;96167.75;;;5.19;44.83
5917;BME280;2984;42.656;23.300;2022-12-20T06:23:01;96177.03;;;5.67;45.70
5917;BME280;2984;42.656;23.300;2022-12-20T06:25:30;96175.94;;;3.57;47.18
5917;BME280;2984;42.656;23.300;2022-12-20T06:27:59;96168.25;;;2.99;51.40
5917;BME280;2984;42.656;23.300;2022-12-20T06:30:27;96181.56;;;5.07;51.19
5917;BME280;2984;42.656;23.300;2022-12-20T06:32:56;96150.34;;;5.49;46.86
5917;BME280;2984;42.656;23.300;2022-12-20T06:35:28;96166.63;;;3.38;48.01
5917;BME280;2984;42.656;23.300;2022-12-20T06:38:00;96158.38;;;2.98;50.41
5917;BME280;2984;42.656;23.300;2022-12-20T06:40:29;96174.97;;;3.20;50.28
5917;BME280;2984;42.656;23.300;2022-12-20T06:42:58;96173.09;;;3.82;51.08
5917;BME280;2984;42.656;23.300;2022-12-20T06:45:26;96173.88;;;3.58;49.15
5917;BME280;2984;42.656;23.300;2022-12-20T06:47:56;96163.69;;;3.28;51.20
5917;BME280;2984;42.656;23.300;2022-12-20T06:50:28;96145.56;;;3.12;53.89
5917;BME280;2984;42.656;23.300;2022-12-20T06:52:57;96156.53;;;3.77;51.24
5917;BME280;2984;42.656;23.300;2022-12-20T06:55:26;96153.63;;;4.19;52.47
5917;BME280;2984;42.656;23.300;2022-12-20T06:57:55;96162.31;;;4.67;48.70
5917;BME280;2984;42.656;23.300;2022-12-20T07:00:24;96142.88;;;4.52;51.56
5917;BME280;2984;42.656;23.300;2022-12-20T07:02:53;96147.22;;;4.89;49.00
5917;BME280;2984;42.656;23.300;2022-12-20T07:05:22;96134.09;;;3.60;50.31
5917;BME280;2984;42.656;23.300;2022-12-20T07:07:53;96149.97;;;4.26;50.09
5917;BME280;2984;42.656;23.300;2022-12-20T07:10:22;96132.75;;;3.43;51.60
5917;BME280;2984;42.656;23.300;2022-12-20T07:12:51;96143.06;;;4.10;52.58
5917;BME280;2984;42.656;23.300;2022-12-20T07:15:20;96124.09;;;4.45;50.62
5917;BME280;2984;42.656;23.300;2022-12-20T07:17:49;96139.81;;;4.84;47.31
5917;BME280;2984;42.656;23.300;2022-12-20T07:20:18;96133.81;;;3.31;50.03
5917;BME280;2984;42.656;23.300;2022-12-20T07:22:47;96144.19;;;2.38;52.24
5917;BME280;2984;42.656;23.300;2022-12-20T07:25:19;96144.56;;;3.93;68.03
5917;BME280;2984;42.656;23.300;2022-12-20T07:27:49;96109.03;;;3.62;48.38
5917;BME280;2984;42.656;23.300;2022-12-20T07:30:18;96121.41;;;2.09;53.06
5917;BME280;2984;42.656;23.300;2022-12-20T07:32:47;96135.94;;;2.48;61.55
5917;BME280;2984;42.656;23.300;2022-12-20T07:35:17;96136.34;;;2.44;50.44
5917;BME280;2984;42.656;23.300;2022-12-20T07:37:45;96132.66;;;2.92;50.12
5917;BME280;2984;42.656;23.300;2022-12-20T07:40:14;96135.59;;;2.44;51.49
5917;BME280;2984;42.656;23.300;2022-12-20T07:42:46;96130.66;;;1.87;52.05
5917;BME280;2984;42.656;23.300;2022-12-20T07:45:15;96136.47;;;1.66;54.48
5917;BME280;2984;42.656;23.300;2022-12-20T07:47:44;96128.19;;;1.28;53.21
5917;BME280;2984;42.656;23.300;2022-12-20T07:50:13;96103.19;;;2.41;51.40
5917;BME280;2984;42.656;23.300;2022-12-20T07:52:43;96132.44;;;3.39;49.50
5917;BME280;2984;42.656;23.300;2022-12-20T07:55:14;96090.22;;;2.78;49.22
5917;BME280;2984;42.656;23.300;2022-12-20T07:57:49;96129.09;;;2.66;49.08
5917;BME280;2984;42.656;23.300;2022-12-20T08:00:22;96089.34;;;2.93;50.03
5917;BME280;2984;42.656;23.300;2022-12-20T08:02:53;96129.22;;;3.43;48.11
5917;BME280;2984;42.656;23.300;2022-12-20T08:05:23;96124.53;;;3.03;50.51
5917;BME280;2984;42.656;23.300;2022-12-20T08:07:53;96119.72;;;3.21;48.92
5917;BME280;2984;42.656;23.300;2022-12-20T08:10:24;96123.28;;;4.88;48.63
5917;BME280;2984;42.656;23.300;2022-12-20T08:12:59;96117.09;;;5.75;44.87
5917;BME280;2984;42.656;23.300;2022-12-20T08:15:28;96114.41;;;7.25;49.96
5917;BME280;2984;42.656;23.300;2022-12-20T08:17:57;96051.00;;;5.74;40.16
5917;BME280;2984;42.656;23.300;2022-12-20T08:20:26;96120.56;;;3.83;46.56
5917;BME280;2984;42.656;23.300;2022-12-20T08:22:55;96112.50;;;3.52;45.95
5917;BME280;2984;42.656;23.300;2022-12-20T08:25:24;96115.50;;;5.06;45.69
5917;BME280;2984;42.656;23.300;2022-12-20T08:27:52;96112.25;;;5.10;43.58
5917;BME280;2984;42.656;23.300;2022-12-20T08:30:24;96102.38;;;3.74;45.57
5917;BME280;2984;42.656;23.300;2022-12-20T08:32:52;96058.63;;;3.27;45.51
5917;BME280;2984;42.656;23.300;2022-12-20T08:35:21;96105.56;;;3.88;47.71
5917;BME280;2984;42.656;23.300;2022-12-20T08:37:50;96099.81;;;5.68;54.24
5917;BME280;2984;42.656;23.300;2022-12-20T08:40:20;96112.28;;;4.73;42.73
5917;BME280;2984;42.656;23.300;2022-12-20T08:42:48;96096.56;;;5.91;46.08
5917;BME280;2984;42.656;23.300;2022-12-20T08:45:17;96098.50;;;3.52;44.60
5917;BME280;2984;42.656;23.300;2022-12-20T08:47:49;96090.88;;;2.36;48.41
5917;BME280;2984;42.656;23.300;2022-12-20T08:50:17;96094.41;;;2.69;48.24
5917;BME280;2984;42.656;23.300;2022-12-20T08:52:46;96085.22;;;3.36;46.76
5917;BME280;2984;42.656;23.300;2022-12-20T08:55:15;96090.72;;;3.09;48.39
5917;BME280;2984;42.656;23.300;2022-12-20T08:57:44;96100.34;;;4.46;48.84
5917;BME280;2984;42.656;23.300;2022-12-20T09:00:14;96106.78;;;4.65;44.37
5917;BME280;2984;42.656;23.300;2022-12-20T09:02:42;96097.28;;;5.82;42.12
5917;BME280;2984;42.656;23.300;2022-12-20T09:05:16;96090.34;;;5.74;43.73
5917;BME280;2984;42.656;23.300;2022-12-20T09:07:45;96074.06;;;5.43;46.36
5917;BME280;2984;42.656;23.300;2022-12-20T09:10:14;96067.09;;;5.63;40.53
5917;BME280;2984;42.656;23.300;2022-12-20T09:12:43;96055.81;;;5.06;42.19
5917;BME280;2984;42.656;23.300;2022-12-20T09:15:11;96076.56;;;3.76;44.32
5917;BME280;2984;42.656;23.300;2022-12-20T09:17:40;96079.94;;;3.74;47.25
5917;BME280;2984;42.656;23.300;2022-12-20T09:20:09;96064.03;;;3.77;47.48
5917;BME280;2984;42.656;23.300;2022-12-20T09:22:40;96068.88;;;5.88;47.78
5917;BME280;2984;42.656;23.300;2022-12-20T09:25:09;96065.50;;;6.59;41.22
5917;BME280;2984;42.656;23.300;2022-12-20T09:27:38;96059.75;;;7.61;42.60
5917;BME280;2984;42.656;23.300;2022-12-20T09:30:08;96054.09;;;7.19;40.23
5917;BME280;2984;42.656;23.300;2022-12-20T09:32:37;96056.47;;;8.87;45.00
5917;BME280;2984;42.656;23.300;2022-12-20T09:35:06;96053.22;;;9.51;40.50
5917;BME280;2984;42.656;23.300;2022-12-20T09:37:35;96034.88;;;9.89;40.75
5917;BME280;2984;42.656;23.300;2022-12-20T09:40:13;96035.47;;;9.62;35.93
5917;BME280;2984;42.656;23.300;2022-12-20T09:42:44;96042.66;;;10.14;35.83
5917;BME280;2984;42.656;23.300;2022-12-20T09:45:19;96027.81;;;7.47;45.86
5917;BME280;2984;42.656;23.300;2022-12-20T09:47:50;96028.00;;;7.18;38.95
5917;BME280;2984;42.656;23.300;2022-12-20T09:50:23;96032.84;;;7.27;39.12
5917;BME280;2984;42.656;23.300;2022-12-20T09:53:03;96022.34;;;7.94;48.53
5917;BME280;2984;42.656;23.300;2022-12-20T09:55:44;96028.03;;;6.87;38.62
5917;BME280;2984;42.656;23.300;2022-12-20T09:58:26;96017.06;;;7.55;40.96
5917;BME280;2984;42.656;23.300;2022-12-20T10:00:56;96011.34;;;7.65;42.68
5917;BME280;2984;42.656;23.300;2022-12-20T10:03:28;96017.59;;;6.99;42.87
5917;BME280;2984;42.656;23.300;2022-12-20T10:06:01;96003.78;;;7.03;41.87
5917;BME280;2984;42.656;23.300;2022-12-20T10:08:43;95998.16;;;7.03;37.67
5917;BME280;2984;42.656;23.300;2022-12-20T10:11:29;95995.28;;;6.20;38.98
5917;BME280;2984;42.656;23.300;2022-12-20T10:14:07;95965.03;;;6.30;44.45
5917;BME280;2984;42.656;23.300;2022-12-20T10:16:43;95978.59;;;7.38;41.48
5917;BME280;2984;42.656;23.300;2022-12-20T10:19:30;95969.75;;;6.90;42.57
5917;BME280;2984;42.656;23.300;2022-12-20T10:22:08;95963.91;;;8.17;38.59
5917;BME280;2984;42.656;23.300;2022-12-20T10:24:46;95947.63;;;8.86;43.17
5917;BME280;2984;42.656;23.300;2022-12-20T10:27:19;95955.94;;;9.81;50.77
5917;BME280;2984;42.656;23.300;2022-12-20T10:29:49;95936.63;;;7.54;37.42
5917;BME280;2984;42.656;23.300;2022-12-20T10:32:21;95931.75;;;8.11;42.71
5917;BME280;2984;42.656;23.300;2022-12-20T10:34:53;95921.91;;;7.89;36.44
5917;BME280;2984;42.656;23.300;2022-12-20T10:37:23;95929.81;;;8.83;36.57
5917;BME280;2984;42.656;23.300;2022-12-20T10:39:52;95918.53;;;7.69;36.51
5917;BME280;2984;42.656;23.300;2022-12-20T10:42:37;95917.00;;;7.77;38.23
5917;BME280;2984;42.656;23.300;2022-12-20T10:45:26;95912.47;;;8.89;38.52
5917;BME280;2984;42.656;23.300;2022-12-20T10:47:58;95914.44;;;7.16;36.82
5917;BME280;2984;42.656;23.300;2022-12-20T10:50:27;95902.19;;;7.56;38.69
5917;BME280;2984;42.656;23.300;2022-12-20T10:53:17;95900.16;;;7.68;43.53
5917;BME280;2984;42.656;23.300;2022-12-20T10:55:47;95887.03;;;7.61;37.75
5917;BME280;2984;42.656;23.300;2022-12-20T10:58:28;95891.50;;;7.99;38.17
5917;BME280;2984;42.656;23.300;2022-12-20T11:01:09;95891.78;;;7.25;36.63
5917;BME280;2984;42.656;23.300;2022-12-20T11:03:52;95896.91;;;8.76;41.33
5917;BME280;2984;42.656;23.300;2022-12-20T11:06:24;95890.88;;;8.82;35.14
5917;BME280;2984;42.656;23.300;2022-12-20T11:09:11;95885.50;;;8.74;40.40
5917;BME280;2984;42.656;23.300;2022-12-20T11:11:57;95876.13;;;8.83;38.12
5917;BME280;2984;42.656;23.300;2022-12-20T11:14:30;95834.75;;;9.39;36.32
5917;BME280;2984;42.656;23.300;2022-12-20T11:17:03;95881.34;;;8.29;35.20
5917;BME280;2984;42.656;23.300;2022-12-20T11:19:49;95856.31;;;8.00;36.41
5917;BME280;2984;42.656;23.300;2022-12-20T11:22:30;95880.09;;;8.20;43.42
5917;BME280;2984;42.656;23.300;2022-12-20T11:32:41;95852.44;;;7.60;38.40
5917;BME280;2984;42.656;23.300;2022-12-20T11:35:17;95847.13;;;6.77;36.73
5917;BME280;2984;42.656;23.300;2022-12-20T11:37:53;95853.00;;;5.77;38.84
5917;BME280;2984;42.656;23.300;2022-12-20T11:40:30;95852.69;;;5.82;38.21
5917;BME280;2984;42.656;23.300;2022-12-20T11:43:18;95847.38;;;7.02;41.86
5917;BME280;2984;42.656;23.300;2022-12-20T11:46:03;95838.13;;;8.49;45.44
5917;BME280;2984;42.656;23.300;2022-12-20T11:48:52;95694.81;;;8.25;38.03
5917;BME280;2984;42.656;23.300;2022-12-20T11:51:30;95825.63;;;9.66;37.00
5917;BME280;2984;42.656;23.300;2022-12-20T11:54:06;95820.38;;;8.84;35.25
5917;BME280;2984;42.656;23.300;2022-12-20T11:56:39;95827.97;;;9.44;36.40
5917;BME280;2984;42.656;23.300;2022-12-20T11:59:13;95806.78;;;9.70;37.93
5917;BME280;2984;42.656;23.300;2022-12-20T12:01:50;95831.19;;;10.44;36.69
5917;BME280;2984;42.656;23.300;2022-12-20T12:04:25;95817.50;;;9.99;33.59
5917;BME280;2984;42.656;23.300;2022-12-20T12:06:57;95821.94;;;9.24;33.60
5917;BME280;2984;42.656;23.300;2022-12-20T12:09:32;95824.19;;;10.31;40.17
5917;BME280;2984;42.656;23.300;2022-12-20T12:12:09;95810.75;;;10.45;35.18
5917;BME280;2984;42.656;23.300;2022-12-20T12:14:47;95816.19;;;10.41;33.12
5917;BME280;2984;42.656;23.300;2022-12-20T12:17:26;95802.72;;;10.01;33.71
5917;BME280;2984;42.656;23.300;2022-12-20T12:20:14;95792.50;;;9.15;37.09
5917;BME280;2984;42.656;23.300;2022-12-20T12:22:48;95791.41;;;10.01;39.64
5917;BME280;2984;42.656;23.300;2022-12-20T12:25:18;95803.38;;;10.67;41.73
5917;BME280;2984;42.656;23.300;2022-12-20T12:27:47;95807.22;;;10.88;39.16
5917;BME280;2984;42.656;23.300;2022-12-20T12:30:16;95802.22;;;10.73;32.82
5917;BME280;2984;42.656;23.300;2022-12-20T12:32:51;95813.88;;;11.08;37.40
5917;BME280;2984;42.656;23.300;2022-12-20T12:35:48;95812.34;;;11.05;37.60
5917;BME280;2984;42.656;23.300;2022-12-20T12:38:41;95805.25;;;11.35;40.20
5917;BME280;2984;42.656;23.300;2022-12-20T12:41:40;95801.09;;;10.93;38.86
5917;BME280;2984;42.656;23.300;2022-12-20T12:44:37;95782.47;;;10.75;39.08
5917;BME280;2984;42.656;23.300;2022-12-20T12:47:11;95779.16;;;10.64;33.58
5917;BME280;2984;42.656;23.300;2022-12-20T12:49:46;95794.09;;;10.38;39.42
5917;BME280;2984;42.656;23.300;2022-12-20T12:52:44;95797.19;;;10.57;38.86
5917;BME280;2984;42.656;23.300;2022-12-20T12:55:34;95804.13;;;10.41;39.97
5917;BME280;2984;42.656;23.300;2022-12-20T13:01:08;95791.78;;;10.20;33.64
5917;BME280;2984;42.656;23.300;2022-12-20T13:04:08;95792.38;;;9.52;36.08
5917;BME280;2984;42.656;23.300;2022-12-20T13:06:55;95773.38;;;9.27;33.77
5917;BME280;2984;42.656;23.300;2022-12-20T13:09:43;95773.72;;;8.11;37.33
5917;BME280;2984;42.656;23.300;2022-12-20T13:15:47;95771.75;;;7.32;34.85
5917;BME280;2984;42.656;23.300;2022-12-20T13:18:24;95770.13;;;6.30;38.46
5917;BME280;2984;42.656;23.300;2022-12-20T13:21:27;95775.81;;;7.40;39.08
5917;BME280;2984;42.656;23.300;2022-12-20T13:27:28;95778.44;;;8.92;37.17
5917;BME280;2984;42.656;23.300;2022-12-20T13:30:26;95781.81;;;9.14;37.93
5917;BME280;2984;42.656;23.300;2022-12-20T13:38:55;95759.38;;;9.57;37.02
5917;BME280;2984;42.656;23.300;2022-12-20T13:41:39;95762.56;;;9.24;36.39
5917;BME280;2984;42.656;23.300;2022-12-20T13:44:34;95772.78;;;9.43;36.44
5917;BME280;2984;42.656;23.300;2022-12-20T13:47:30;95762.78;;;9.28;37.19
5917;BME280;2984;42.656;23.300;2022-12-20T13:50:00;95758.34;;;9.11;36.96
5917;BME280;2984;42.656;23.300;2022-12-20T13:52:31;95755.91;;;8.43;35.71
